^^
Saratoga-Weather Station Historical Data
Daily Summary for October 27, 2021 Units:  English    Metric   Both
Daily Weekly Monthly Yearly Custom
  High: Low: Average:
Temperature: 57 °F 46.2 °F 50.4 °F
Dew Point: 52.3 °F 44.8 °F 48.4 °F
Humidity: 97% 83% 93%
Wind Speed: 4.9mph 0mph 0.4mph
Wind Gust: 5mph - -
Wind- - ESE
Pressure: 30.3 in 30.2 in -
Precipitation: 0 in    
Historical Graphs
 
 
Tabular Data for October 27, 2021
Time Temperature Dew Point Pressure Wind Wind Speed Wind Gust Humidity Rainfall Rate (Hourly) solar
00:00 50 °F 48.6 °F 30.3 in East 2 mph 4 mph 95% 0 in 0 W/m2
00:05 50.2 °F 48.7 °F 30.3 in NE 0.9 mph 3 mph 95% 0 in 0 W/m2
00:10 50.2 °F 48.7 °F 30.3 in ESE 2 mph 3 mph 95% 0 in 0 W/m2
00:15 50.2 °F 48.7 °F 30.3 in Calm   1 mph 95% 0 in 0 W/m2
00:20 50 °F 48.6 °F 30.3 in Calm     95% 0 in 0 W/m2
00:25 49.8 °F 48.4 °F 30.3 in Calm     95% 0 in 0 W/m2
00:30 49.8 °F 48.4 °F 30.3 in Calm     95% 0 in 0 W/m2
00:35 49.8 °F 48.4 °F 30.3 in Calm     95% 0 in 0 W/m2
00:40 49.8 °F 48.4 °F 30.3 in Calm     95% 0 in 0 W/m2
00:45 50 °F 48.6 °F 30.3 in Calm   2 mph 95% 0 in 0 W/m2
00:50 50.2 °F 48.7 °F 30.3 in Calm   3 mph 95% 0 in 0 W/m2
00:55 50.2 °F 49.1 °F 30.3 in West 2 mph 2 mph 96% 0 in 0 W/m2
01:00 50.4 °F 48.9 °F 30.3 in Calm     95% 0 in 0 W/m2
01:05 50.4 °F 48.9 °F 30.3 in Calm   3 mph 95% 0 in 0 W/m2
01:10 50.4 °F 48.9 °F 30.3 in Calm     95% 0 in 0 W/m2
01:15 50.4 °F 48.9 °F 30.3 in Calm   4 mph 95% 0 in 0 W/m2
01:20 50.5 °F 49.1 °F 30.3 in Calm     95% 0 in 0 W/m2
01:25 50.5 °F 49.1 °F 30.3 in NW 2.9 mph 4 mph 95% 0 in 0 W/m2
01:30 50.5 °F 49.1 °F 30.3 in West 4 mph 4 mph 95% 0 in 0 W/m2
01:35 50.7 °F 49.3 °F 30.3 in Calm   3 mph 95% 0 in 0 W/m2
01:40 50.9 °F 49.5 °F 30.3 in WSW 4.9 mph 5 mph 95% 0 in 0 W/m2
01:45 51.1 °F 49.6 °F 30.3 in Calm   2 mph 95% 0 in 0 W/m2
01:50 51.3 °F 49.8 °F 30.3 in West 2 mph 3 mph 95% 0 in 0 W/m2
01:55 51.4 °F 49.8 °F 30.3 in SW 0.9 mph 3 mph 94% 0 in 0 W/m2
02:01 51.4 °F 49.8 °F 30.3 in SW 2.9 mph 4 mph 94% 0 in 0 W/m2
02:06 51.6 °F 50 °F 30.3 in Calm   2 mph 94% 0 in 0 W/m2
02:11 51.6 °F 49.6 °F 30.3 in Calm   4 mph 93% 0 in 0 W/m2
02:16 51.6 °F 49.6 °F 30.3 in Calm     93% 0 in 0 W/m2
02:21 51.4 °F 49.5 °F 30.3 in SW 0.9 mph 1 mph 93% 0 in 0 W/m2
02:26 51.4 °F 49.5 °F 30.3 in SW 0.9 mph 2 mph 93% 0 in 0 W/m2
02:31 51.3 °F 49.3 °F 30.3 in Calm     93% 0 in 0 W/m2
02:36 51.1 °F 49.1 °F 30.3 in Calm   2 mph 93% 0 in 0 W/m2
02:41 50.7 °F 48.6 °F 30.3 in Calm     92% 0 in 0 W/m2
02:46 50.4 °F 48.2 °F 30.3 in Calm   1 mph 92% 0 in 0 W/m2
02:51 50 °F 47.8 °F 30.3 in Calm     92% 0 in 0 W/m2
02:56 49.6 °F 47.5 °F 30.3 in Calm     92% 0 in 0 W/m2
03:01 49.5 °F 47.5 °F 30.3 in Calm     93% 0 in 0 W/m2
03:06 49.5 °F 47.5 °F 30.3 in Calm   3 mph 93% 0 in 0 W/m2
03:11 49.5 °F 47.8 °F 30.3 in Calm   2 mph 94% 0 in 0 W/m2
03:16 49.5 °F 47.8 °F 30.3 in Calm   2 mph 94% 0 in 0 W/m2
03:21 49.5 °F 47.8 °F 30.3 in NNW 2 mph 2 mph 94% 0 in 0 W/m2
03:26 49.5 °F 47.8 °F 30.3 in Calm     94% 0 in 0 W/m2
03:31 49.5 °F 47.8 °F 30.3 in Calm     94% 0 in 0 W/m2
03:36 49.5 °F 47.8 °F 30.3 in Calm     94% 0 in 0 W/m2
03:41 49.3 °F 47.7 °F 30.3 in Calm   1 mph 94% 0 in 0 W/m2
03:46 49.3 °F 47.7 °F 30.3 in Calm     94% 0 in 0 W/m2
03:51 49.1 °F 47.5 °F 30.3 in Calm     94% 0 in 0 W/m2
03:56 48.9 °F 47.3 °F 30.3 in Calm     94% 0 in 0 W/m2
04:01 48.7 °F 47.1 °F 30.3 in Calm     94% 0 in 0 W/m2
04:06 48.6 °F 46.9 °F 30.3 in Calm     94% 0 in 0 W/m2
04:11 48.4 °F 46.8 °F 30.3 in Calm     94% 0 in 0 W/m2
04:16 48 °F 46.4 °F 30.3 in Calm     94% 0 in 0 W/m2
04:21 47.8 °F 46.2 °F 30.3 in Calm     94% 0 in 0 W/m2
04:26 47.5 °F 45.9 °F 30.3 in Calm     94% 0 in 0 W/m2
04:31 47.5 °F 45.9 °F 30.3 in Calm     94% 0 in 0 W/m2
04:36 47.1 °F 45.7 °F 30.3 in Calm     95% 0 in 0 W/m2
04:41 47.1 °F 45.7 °F 30.3 in Calm     95% 0 in 0 W/m2
04:46 46.9 °F 45.5 °F 30.3 in Calm     95% 0 in 0 W/m2
04:51 46.9 °F 45.5 °F 30.3 in Calm     95% 0 in 0 W/m2
04:56 46.9 °F 45.5 °F 30.3 in Calm     95% 0 in 0 W/m2
05:01 46.9 °F 45.5 °F 30.3 in Calm     95% 0 in 0 W/m2
05:06 46.9 °F 45.5 °F 30.3 in Calm     95% 0 in 0 W/m2
05:11 46.8 °F 45.3 °F 30.3 in Calm     95% 0 in 0 W/m2
05:16 46.8 °F 45.3 °F 30.3 in Calm     95% 0 in 0 W/m2
05:21 46.8 °F 45.3 °F 30.3 in Calm     95% 0 in 0 W/m2
05:27 46.6 °F 45.1 °F 30.3 in Calm     95% 0 in 0 W/m2
05:32 46.6 °F 45.1 °F 30.3 in Calm     95% 0 in 0 W/m2
05:37 46.6 °F 45.1 °F 30.3 in Calm     95% 0 in 0 W/m2
05:42 46.4 °F 45 °F 30.3 in Calm     95% 0 in 0 W/m2
05:47 46.2 °F 44.8 °F 30.3 in Calm     95% 0 in 0 W/m2
05:52 46.2 °F 44.8 °F 30.3 in Calm     95% 0 in 0 W/m2
05:57 46.2 °F 45.1 °F 30.3 in Calm     96% 0 in 0 W/m2
06:02 46.4 °F 45.3 °F 30.3 in Calm   2 mph 96% 0 in 0 W/m2
06:07 46.6 °F 45.5 °F 30.3 in Calm     96% 0 in 0 W/m2
06:12 46.6 °F 45.5 °F 30.3 in Calm   2 mph 96% 0 in 0 W/m2
06:17 46.9 °F 45.9 °F 30.3 in Calm     96% 0 in 0 W/m2
06:22 46.9 °F 45.9 °F 30.3 in Calm     96% 0 in 0 W/m2
06:27 47.1 °F 46 °F 30.3 in Calm     96% 0 in 0 W/m2
06:32 47.3 °F 46.2 °F 30.3 in Calm     96% 0 in 0 W/m2
06:37 47.5 °F 46.4 °F 30.3 in Calm     96% 0 in 0 W/m2
06:42 47.5 °F 46.4 °F 30.3 in Calm     96% 0 in 0 W/m2
06:47 47.7 °F 46.6 °F 30.3 in Calm     96% 0 in 0 W/m2
06:52 47.7 °F 46.6 °F 30.3 in Calm     96% 0 in 0 W/m2
06:57 47.7 °F 46.6 °F 30.3 in Calm     96% 0 in 0 W/m2
07:02 47.7 °F 46.6 °F 30.3 in Calm     96% 0 in 0 W/m2
07:07 47.5 °F 46.4 °F 30.3 in Calm     96% 0 in 0 W/m2
07:12 47.5 °F 46.4 °F 30.3 in Calm     96% 0 in 0 W/m2
07:17 47.5 °F 46.4 °F 30.3 in Calm     96% 0 in 0 W/m2
07:22 47.5 °F 46.4 °F 30.3 in Calm     96% 0 in 0 W/m2
07:27 47.5 °F 46.4 °F 30.3 in Calm     96% 0 in 0 W/m2
07:32 47.5 °F 46.4 °F 30.3 in ENE 0.9 mph 2 mph 96% 0 in 0 W/m2
07:37 47.7 °F 46.9 °F 30.3 in Calm     97% 0 in 0 W/m2
07:42 47.7 °F 46.9 °F 30.3 in Calm   2 mph 97% 0 in 0 W/m2
07:47 47.7 °F 46.9 °F 30.3 in Calm     97% 0 in 0 W/m2
07:52 47.7 °F 46.9 °F 30.3 in Calm     97% 0 in 0 W/m2
07:57 47.7 °F 46.9 °F 30.3 in Calm   1 mph 97% 0 in 0 W/m2
08:02 47.8 °F 46.9 °F 30.3 in ENE 2 mph 2 mph 97% 0 in 0 W/m2
08:07 47.8 °F 46.9 °F 30.3 in Calm     97% 0 in 0 W/m2
08:12 47.8 °F 46.9 °F 30.3 in Calm     97% 0 in 0 W/m2
08:17 47.8 °F 46.9 °F 30.3 in Calm     97% 0 in 0 W/m2
08:22 47.8 °F 46.8 °F 30.3 in Calm     96% 0 in 0 W/m2
08:27 47.8 °F 46.8 °F 30.3 in Calm     96% 0 in 0 W/m2
08:32 47.8 °F 46.8 °F 30.3 in Calm     96% 0 in 5 W/m2
08:37 48 °F 47.1 °F 30.3 in Calm     97% 0 in 7 W/m2
08:42 48.2 °F 47.3 °F 30.3 in Calm   1 mph 97% 0 in 9 W/m2
08:47 48.4 °F 47.5 °F 30.3 in Calm     97% 0 in 11 W/m2
08:52 48.6 °F 47.7 °F 30.3 in Calm   1 mph 97% 0 in 12 W/m2
08:57 48.6 °F 47.7 °F 30.3 in East 2 mph 3 mph 97% 0 in 14 W/m2
09:02 48.4 °F 47.5 °F 30.3 in Calm   1 mph 97% 0 in 16 W/m2
09:07 48.4 °F 47.5 °F 30.3 in Calm     97% 0 in 14 W/m2
09:12 48.4 °F 47.5 °F 30.3 in Calm     97% 0 in 16 W/m2
09:17 48.4 °F 47.5 °F 30.3 in Calm     97% 0 in 16 W/m2
09:22 48.6 °F 47.7 °F 30.3 in Calm     97% 0 in 16 W/m2
09:27 48.6 °F 47.7 °F 30.3 in Calm     97% 0 in 16 W/m2
09:32 48.6 °F 47.7 °F 30.3 in Calm     97% 0 in 19 W/m2
09:37 48.7 °F 47.8 °F 30.3 in East 0.9 mph 2 mph 97% 0 in 25 W/m2
09:42 48.7 °F 47.8 °F 30.3 in Calm   2 mph 97% 0 in 28 W/m2
09:47 48.9 °F 48 °F 30.3 in East 0.9 mph 2 mph 97% 0 in 30 W/m2
09:52 48.9 °F 48 °F 30.3 in East 0.9 mph 2 mph 97% 0 in 33 W/m2
09:57 48.9 °F 48 °F 30.3 in ESE 2 mph 2 mph 97% 0 in 33 W/m2
10:02 49.1 °F 48.2 °F 30.3 in East 2 mph 3 mph 97% 0 in 37 W/m2
10:07 48.9 °F 48 °F 30.3 in East 0.9 mph 2 mph 97% 0 in 46 W/m2
10:12 49.1 °F 48.2 °F 30.3 in ESE 0.9 mph 3 mph 97% 0 in 49 W/m2
10:17 49.1 °F 48.2 °F 30.3 in ESE 2 mph 2 mph 97% 0 in 54 W/m2
10:22 49.1 °F 48 °F 30.3 in ESE 2 mph 3 mph 96% 0 in 56 W/m2
10:27 49.1 °F 48 °F 30.3 in East 2.9 mph 3 mph 96% 0 in 58 W/m2
10:32 49.3 °F 48.2 °F 30.3 in East 2 mph 3 mph 96% 0 in 56 W/m2
10:37 49.3 °F 48.2 °F 30.3 in East 2 mph 3 mph 96% 0 in 56 W/m2
10:42 49.5 °F 48.4 °F 30.3 in ESE 2 mph 3 mph 96% 0 in 63 W/m2
10:47 49.5 °F 48.4 °F 30.3 in ESE 2 mph 2 mph 96% 0 in 65 W/m2
10:52 49.6 °F 48.6 °F 30.3 in Calm   2 mph 96% 0 in 72 W/m2
10:57 49.6 °F 48.6 °F 30.3 in ESE 0.9 mph 2 mph 96% 0 in 63 W/m2
11:02 49.8 °F 48.7 °F 30.3 in ESE 0.9 mph 3 mph 96% 0 in 58 W/m2
11:07 49.8 °F 48.7 °F 30.3 in Calm   2 mph 96% 0 in 56 W/m2
11:12 50 °F 48.9 °F 30.3 in Calm   3 mph 96% 0 in 67 W/m2
11:17 50.2 °F 49.1 °F 30.3 in ESE 0.9 mph 2 mph 96% 0 in 67 W/m2
11:22 50.2 °F 49.1 °F 30.3 in Calm   2 mph 96% 0 in 58 W/m2
11:27 50.4 °F 49.3 °F 30.3 in Calm   1 mph 96% 0 in 63 W/m2
11:32 50.5 °F 49.5 °F 30.3 in ESE 0.9 mph 2 mph 96% 0 in 83 W/m2
11:37 50.5 °F 49.5 °F 30.3 in ESE 0.9 mph 1 mph 96% 0 in 79 W/m2
11:42 50.7 °F 49.3 °F 30.3 in ESE 2 mph 3 mph 95% 0 in 63 W/m2
11:47 50.7 °F 49.3 °F 30.3 in Calm   2 mph 95% 0 in 70 W/m2
11:52 50.9 °F 49.5 °F 30.3 in Calm   3 mph 95% 0 in 86 W/m2
11:58 51.1 °F 49.6 °F 30.3 in ESE 0.9 mph 2 mph 95% 0 in 102 W/m2
12:03 51.3 °F 49.8 °F 30.3 in Calm     95% 0 in 95 W/m2
12:08 51.4 °F 50 °F 30.3 in Calm     95% 0 in 100 W/m2
12:13 51.6 °F 50 °F 30.3 in Calm   2 mph 94% 0 in 102 W/m2
12:18 51.8 °F 50.2 °F 30.3 in Calm   2 mph 94% 0 in 97 W/m2
12:23 52 °F 50.4 °F 30.3 in East 0.9 mph 2 mph 94% 0 in 81 W/m2
12:28 52.2 °F 50.5 °F 30.3 in East 0.9 mph 1 mph 94% 0 in 97 W/m2
12:33 52.3 °F 50.7 °F 30.3 in Calm   2 mph 94% 0 in 88 W/m2
12:38 52.5 °F 50.5 °F 30.3 in Calm   2 mph 93% 0 in 113 W/m2
12:43 52.5 °F 50.5 °F 30.3 in Calm     93% 0 in 120 W/m2
12:48 52.9 °F 50.9 °F 30.3 in NE 0.9 mph 2 mph 93% 0 in 113 W/m2
12:53 53.1 °F 51.1 °F 30.3 in Calm   1 mph 93% 0 in 102 W/m2
12:58 53.1 °F 50.7 °F 30.3 in ENE 0.9 mph 3 mph 92% 0 in 90 W/m2
13:03 53.1 °F 50.7 °F 30.3 in Calm   1 mph 92% 0 in 109 W/m2
13:08 53.2 °F 50.9 °F 30.3 in SE 2 mph 2 mph 92% 0 in 120 W/m2
13:13 53.2 °F 50.9 °F 30.3 in ESE 0.9 mph 1 mph 92% 0 in 125 W/m2
13:18 53.2 °F 50.9 °F 30.3 in ESE 0.9 mph 3 mph 92% 0 in 118 W/m2
13:23 53.2 °F 50.9 °F 30.3 in ESE 0.9 mph 2 mph 92% 0 in 120 W/m2
13:28 53.4 °F 50.9 °F 30.3 in ENE 0.9 mph 3 mph 91% 0 in 141 W/m2
13:33 53.4 °F 50.9 °F 30.3 in ESE 0.9 mph 3 mph 91% 0 in 139 W/m2
13:38 53.6 °F 51.1 °F 30.3 in Calm   2 mph 91% 0 in 153 W/m2
13:43 53.8 °F 51.3 °F 30.3 in Calm   3 mph 91% 0 in 160 W/m2
13:48 54 °F 51.4 °F 30.3 in Calm   2 mph 91% 0 in 144 W/m2
13:53 54.1 °F 51.3 °F 30.3 in ESE 2 mph 2 mph 90% 0 in 134 W/m2
13:58 54.1 °F 51.3 °F 30.3 in East 0.9 mph 2 mph 90% 0 in 142 W/m2
14:03 54.3 °F 51.4 °F 30.3 in East 0.9 mph 2 mph 90% 0 in 146 W/m2
14:08 54.3 °F 51.4 °F 30.3 in East 2 mph 3 mph 90% 0 in 163 W/m2
14:13 54.7 °F 51.8 °F 30.3 in East 2.9 mph 4 mph 90% 0 in 151 W/m2
14:18 54.9 °F 51.6 °F 30.3 in East 2 mph 3 mph 89% 0 in 160 W/m2
14:23 54.9 °F 51.6 °F 30.3 in East 0.9 mph 3 mph 89% 0 in 171 W/m2
14:28 55 °F 51.6 °F 30.3 in East 2.9 mph 3 mph 88% 0 in 183 W/m2
14:33 55 °F 51.6 °F 30.3 in NE 2 mph 4 mph 88% 0 in 169 W/m2
14:38 55.2 °F 51.4 °F 30.3 in ENE 2 mph 3 mph 87% 0 in 176 W/m2
14:43 55.2 °F 51.4 °F 30.3 in East 2 mph 3 mph 87% 0 in 181 W/m2
14:48 55.4 °F 51.6 °F 30.3 in NE 0.9 mph 1 mph 87% 0 in 176 W/m2
14:53 55.6 °F 51.8 °F 30.3 in Calm   2 mph 87% 0 in 167 W/m2
14:58 55.8 °F 51.6 °F 30.3 in Calm   3 mph 86% 0 in 200 W/m2
15:03 55.8 °F 51.6 °F 30.2 in NE 2 mph 3 mph 86% 0 in 128 W/m2
15:08 55.9 °F 51.8 °F 30.2 in NE 0.9 mph 3 mph 86% 0 in 125 W/m2
15:13 56.1 °F 51.6 °F 30.2 in Calm   4 mph 85% 0 in 142 W/m2
15:18 56.1 °F 51.6 °F 30.2 in ESE 2 mph 2 mph 85% 0 in 123 W/m2
15:23 56.5 °F 52 °F 30.2 in ESE 0.9 mph 4 mph 85% 0 in 135 W/m2
15:28 56.7 °F 52.2 °F 30.2 in Calm   2 mph 85% 0 in 148 W/m2
15:33 56.8 °F 52.3 °F 30.2 in NE 2 mph 4 mph 85% 0 in 146 W/m2
15:38 56.8 °F 52 °F 30.2 in ENE 2.9 mph 4 mph 84% 0 in 134 W/m2
15:43 57 °F 52.2 °F 30.2 in Calm   1 mph 84% 0 in 141 W/m2
15:48 57 °F 52 °F 30.2 in East 0.9 mph 3 mph 83% 0 in 142 W/m2
15:53 56.8 °F 51.8 °F 30.2 in Calm   2 mph 83% 0 in 128 W/m2
15:58 56.8 °F 51.8 °F 30.2 in Calm   2 mph 83% 0 in 121 W/m2
16:03 56.8 °F 51.8 °F 30.2 in ENE 0.9 mph 3 mph 83% 0 in 123 W/m2
16:08 56.7 °F 51.6 °F 30.2 in ENE 0.9 mph 2 mph 83% 0 in 118 W/m2
16:13 56.7 °F 51.8 °F 30.2 in NE 0.9 mph 2 mph 84% 0 in 76 W/m2
16:18 56.7 °F 51.6 °F 30.2 in ENE 0.9 mph 3 mph 83% 0 in 79 W/m2
16:23 56.7 °F 51.8 °F 30.2 in ENE 2.9 mph 4 mph 84% 0 in 69 W/m2
16:28 56.7 °F 51.6 °F 30.2 in Calm   4 mph 83% 0 in 58 W/m2
16:33 56.5 °F 51.4 °F 30.2 in ENE 0.9 mph 2 mph 83% 0 in 49 W/m2
16:38 56.5 °F 51.4 °F 30.2 in ENE 2 mph 4 mph 83% 0 in 46 W/m2
16:43 56.3 °F 51.4 °F 30.2 in Calm   1 mph 84% 0 in 44 W/m2
16:48 56.1 °F 51.4 °F 30.2 in Calm     84% 0 in 42 W/m2
16:53 56.1 °F 51.4 °F 30.2 in Calm     84% 0 in 42 W/m2
16:58 55.9 °F 51.3 °F 30.2 in Calm   1 mph 84% 0 in 40 W/m2
17:03 55.9 °F 51.4 °F 30.2 in ESE 4 mph 4 mph 85% 0 in 42 W/m2
17:08 55.8 °F 51.3 °F 30.2 in ENE 0.9 mph 2 mph 85% 0 in 40 W/m2
17:13 55.8 °F 51.3 °F 30.2 in ENE 2 mph 2 mph 85% 0 in 35 W/m2
17:18 55.6 °F 51.1 °F 30.2 in ENE 0.9 mph 3 mph 85% 0 in 35 W/m2
17:23 55.6 °F 51.1 °F 30.2 in ESE 0.9 mph 2 mph 85% 0 in 33 W/m2
17:28 55.4 °F 51.3 °F 30.2 in Calm     86% 0 in 33 W/m2
17:33 55.2 °F 51.1 °F 30.2 in East 0.9 mph 2 mph 86% 0 in 32 W/m2
17:38 55 °F 50.9 °F 30.2 in Calm   1 mph 86% 0 in 30 W/m2
17:43 54.9 °F 50.7 °F 30.2 in Calm   1 mph 86% 0 in 26 W/m2
17:48 54.7 °F 50.9 °F 30.2 in SE 0.9 mph 2 mph 87% 0 in 23 W/m2
17:53 54.3 °F 50.5 °F 30.2 in Calm   2 mph 87% 0 in 21 W/m2
17:58 54.1 °F 50.4 °F 30.2 in Calm   1 mph 87% 0 in 19 W/m2
18:03 54 °F 50.5 °F 30.2 in Calm     88% 0 in 16 W/m2
18:08 53.8 °F 50.4 °F 30.2 in Calm   1 mph 88% 0 in 12 W/m2
18:13 53.4 °F 50.2 °F 30.2 in Calm     89% 0 in 9 W/m2
18:18 53.2 °F 50 °F 30.2 in Calm     89% 0 in 5 W/m2
18:23 52.9 °F 49.6 °F 30.2 in Calm   1 mph 89% 0 in 0 W/m2
18:28 52.5 °F 49.6 °F 30.2 in Calm     90% 0 in 0 W/m2
18:33 52.3 °F 49.5 °F 30.2 in Calm     90% 0 in 0 W/m2
18:38 52.2 °F 49.6 °F 30.2 in Calm     91% 0 in 0 W/m2
18:43 52 °F 49.5 °F 30.2 in Calm     91% 0 in 0 W/m2
18:48 51.6 °F 49.1 °F 30.2 in Calm     91% 0 in 0 W/m2
18:53 51.4 °F 48.9 °F 30.2 in Calm     91% 0 in 0 W/m2
18:58 51.3 °F 48.7 °F 30.2 in Calm     91% 0 in 0 W/m2
19:03 50.9 °F 48.7 °F 30.2 in Calm     92% 0 in 0 W/m2
19:08 50.7 °F 48.6 °F 30.2 in Calm     92% 0 in 0 W/m2
19:13 50.7 °F 48.6 °F 30.2 in Calm     92% 0 in 0 W/m2
19:18 50.5 °F 48.6 °F 30.2 in Calm     93% 0 in 0 W/m2
19:23 50.4 °F 48.4 °F 30.2 in Calm     93% 0 in 0 W/m2
19:28 50.2 °F 48.2 °F 30.2 in Calm     93% 0 in 0 W/m2
19:33 50.2 °F 48.2 °F 30.2 in Calm     93% 0 in 0 W/m2
19:38 49.8 °F 47.8 °F 30.2 in Calm     93% 0 in 0 W/m2
19:43 49.6 °F 47.7 °F 30.2 in Calm     93% 0 in 0 W/m2
19:48 49.6 °F 48 °F 30.2 in Calm     94% 0 in 0 W/m2
19:53 49.6 °F 48 °F 30.2 in Calm   2 mph 94% 0 in 0 W/m2
19:58 49.6 °F 48 °F 30.2 in Calm   1 mph 94% 0 in 0 W/m2
20:03 49.6 °F 48 °F 30.2 in Calm   2 mph 94% 0 in 0 W/m2
20:08 49.5 °F 47.8 °F 30.2 in Calm     94% 0 in 0 W/m2
20:13 49.3 °F 47.7 °F 30.2 in Calm     94% 0 in 0 W/m2
20:18 49.1 °F 47.5 °F 30.2 in Calm     94% 0 in 0 W/m2
20:23 48.9 °F 47.3 °F 30.2 in Calm     94% 0 in 0 W/m2
20:28 48.7 °F 47.1 °F 30.2 in Calm     94% 0 in 0 W/m2
20:33 48.7 °F 47.1 °F 30.2 in SSE 0.9 mph 1 mph 94% 0 in 0 W/m2
20:38 48.6 °F 46.9 °F 30.2 in Calm     94% 0 in 0 W/m2
20:43 48.4 °F 46.8 °F 30.2 in Calm   1 mph 94% 0 in 0 W/m2
20:49 48.4 °F 46.9 °F 30.2 in Calm     95% 0 in 0 W/m2
20:54 48.4 °F 46.9 °F 30.2 in Calm   1 mph 95% 0 in 0 W/m2
20:59 48.2 °F 46.8 °F 30.2 in Calm     95% 0 in 0 W/m2
21:04 48 °F 46.6 °F 30.2 in Calm     95% 0 in 0 W/m2
21:09 47.8 °F 46.4 °F 30.2 in Calm     95% 0 in 0 W/m2
21:14 47.7 °F 46.2 °F 30.2 in Calm     95% 0 in 0 W/m2
21:19 47.5 °F 46 °F 30.2 in Calm     95% 0 in 0 W/m2
21:24 47.5 °F 46 °F 30.2 in Calm     95% 0 in 0 W/m2
21:29 47.3 °F 45.9 °F 30.2 in Calm     95% 0 in 0 W/m2
21:34 47.1 °F 45.7 °F 30.2 in Calm     95% 0 in 0 W/m2
21:39 47.1 °F 45.7 °F 30.2 in Calm     95% 0 in 0 W/m2
21:44 47.1 °F 45.7 °F 30.2 in Calm     95% 0 in 0 W/m2
21:49 46.9 °F 45.5 °F 30.2 in Calm     95% 0 in 0 W/m2
21:54 46.9 °F 45.5 °F 30.2 in Calm     95% 0 in 0 W/m2
21:59 46.9 °F 45.5 °F 30.2 in Calm     95% 0 in 0 W/m2
22:04 46.9 °F 45.5 °F 30.2 in Calm     95% 0 in 0 W/m2
22:09 46.8 °F 45.3 °F 30.2 in Calm     95% 0 in 0 W/m2
22:14 46.8 °F 45.7 °F 30.2 in Calm     96% 0 in 0 W/m2
22:19 46.8 °F 45.7 °F 30.2 in Calm     96% 0 in 0 W/m2
22:24 46.8 °F 45.7 °F 30.2 in Calm     96% 0 in 0 W/m2
22:29 46.6 °F 45.5 °F 30.2 in Calm     96% 0 in 0 W/m2
22:34 46.6 °F 45.1 °F 30.2 in Calm     95% 0 in 0 W/m2
22:39 46.4 °F 45.3 °F 30.2 in Calm     96% 0 in 0 W/m2
22:44 46.2 °F 45.1 °F 30.2 in Calm     96% 0 in 0 W/m2
22:49 46.2 °F 45.1 °F 30.2 in Calm     96% 0 in 0 W/m2
22:54 46.2 °F 45.1 °F 30.2 in Calm     96% 0 in 0 W/m2
22:59 46.4 °F 45.3 °F 30.2 in Calm     96% 0 in 0 W/m2
23:04 46.6 °F 45.5 °F 30.2 in Calm     96% 0 in 0 W/m2
23:09 46.8 °F 45.7 °F 30.2 in Calm     96% 0 in 0 W/m2
23:14 46.9 °F 45.9 °F 30.2 in Calm     96% 0 in 0 W/m2
23:19 46.9 °F 45.9 °F 30.2 in Calm     96% 0 in 0 W/m2
23:24 46.8 °F 45.7 °F 30.2 in Calm     96% 0 in 0 W/m2
23:29 46.8 °F 45.7 °F 30.2 in Calm     96% 0 in 0 W/m2
23:34 46.9 °F 45.9 °F 30.2 in Calm     96% 0 in 0 W/m2
23:39 47.1 °F 46 °F 30.2 in Calm     96% 0 in 0 W/m2
23:44 47.3 °F 46.2 °F 30.2 in Calm     96% 0 in 0 W/m2
23:49 47.5 °F 46.4 °F 30.2 in Calm     96% 0 in 0 W/m2
23:54 47.5 °F 46.4 °F 30.2 in Calm     96% 0 in 0 W/m2
23:59 47.5 °F 46.4 °F 30.2 in Calm   3 mph 96% 0 in 0 W/m2
Juneau County Weather
Compliments of Weather Underground - 4 mb